Time;durP1;ratioP1;P1;durP2;ratioP2;P2;SDS_P1;SDS_P2;PMS_P1;PMS_P2;Temp;Humidity;BMP_temperature;BMP_pressure;BME280_temperature;BME280_humidity;BME280_pressure;Samples;Min_cycle;Max_cycle;Signal;HPM_P1;HPM_P2
2022/05/01 00:01:30;;;;;;;2.33;1.13;;;14.70;59.10;;;;;;20553616;28;20173;-72
2022/05/01 00:11:30;;;;;;;1.35;0.93;;;14.70;59.10;;;;;;20557411;28;20038;-72
2022/05/01 00:21:31;;;;;;;1.92;1.02;;;14.70;59.10;;;;;;20551995;28;20045;-72
2022/05/01 00:31:32;;;;;;;1.63;1.03;;;14.70;59.10;;;;;;20568554;28;20084;-74
2022/05/01 00:41:37;;;;;;;1.83;1.13;;;14.70;59.10;;;;;;20567999;28;20301;-72
2022/05/01 00:52:01;;;;;;;2.03;1.00;;;14.60;59.10;;;;;;20518105;28;20493;-73
2022/05/01 01:02:01;;;;;;;2.22;0.98;;;14.60;59.10;;;;;;20536103;28;20035;-73
2022/05/01 01:22:22;;;;;;;1.65;0.98;;;14.70;59.20;;;;;;20553813;28;20282;-73
2022/05/01 01:32:24;;;;;;;1.30;1.05;;;14.60;59.10;;;;;;20547739;28;20092;-74
2022/05/01 01:42:24;;;;;;;1.33;0.88;;;14.60;59.20;;;;;;20547814;28;20050;-73
2022/05/01 01:52:25;;;;;;;3.15;1.23;;;14.60;59.20;;;;;;20563707;28;20039;-72
2022/05/01 02:02:25;;;;;;;1.45;1.00;;;14.60;59.10;;;;;;20545791;28;20053;-73
2022/05/01 02:12:26;;;;;;;3.92;1.13;;;14.60;59.80;;;;;;20561552;28;20469;-72
2022/05/01 02:22:27;;;;;;;2.17;1.20;;;14.60;59.20;;;;;;20522042;28;20031;-73
2022/05/01 02:32:29;;;;;;;2.22;1.10;;;14.60;59.20;;;;;;20544324;28;20402;-74
2022/05/01 02:42:30;;;;;;;1.33;1.02;;;14.60;59.20;;;;;;20888374;23;20109;-72
2022/05/01 02:52:30;;;;;;;1.35;0.80;;;14.60;59.20;;;;;;20560515;28;20040;-71
2022/05/01 03:02:31;;;;;;;2.72;1.15;;;14.60;59.20;;;;;;20560656;28;20030;-71
2022/05/01 03:12:32;;;;;;;1.88;1.13;;;14.60;59.20;;;;;;20543589;28;20039;-74
2022/05/01 03:22:33;;;;;;;2.83;1.20;;;14.60;59.30;;;;;;20556792;28;20125;-72
2022/05/01 03:32:33;;;;;;;2.33;1.35;;;14.50;59.20;;;;;;20540880;28;20034;-72
2022/05/01 03:42:34;;;;;;;2.20;1.10;;;14.50;59.20;;;;;;20555503;28;20043;-71
2022/05/01 03:52:34;;;;;;;1.65;1.25;;;14.50;59.30;;;;;;20555003;28;20122;-71
2022/05/01 04:02:42;;;;;;;1.27;1.00;;;14.50;59.30;;;;;;20554763;28;20031;-71
2022/05/01 04:12:44;;;;;;;1.73;1.08;;;14.50;60.00;;;;;;20537974;28;20405;-71
2022/05/01 04:22:46;;;;;;;1.60;1.25;;;14.50;59.40;;;;;;20555873;28;20109;-73
2022/05/01 04:32:58;;;;;;;1.75;1.05;;;14.50;59.50;;;;;;20590491;28;20142;-73
2022/05/01 04:43:07;;;;;;;1.80;1.40;;;14.50;59.50;;;;;;20519433;28;20039;-71
2022/05/01 04:53:11;;;;;;;2.88;1.38;;;14.50;59.60;;;;;;20519446;28;20126;-71
2022/05/01 05:03:13;;;;;;;1.85;1.40;;;14.50;59.60;;;;;;20549324;28;20047;-74
2022/05/01 05:13:23;;;;;;;4.55;1.65;;;14.50;59.60;;;;;;20548562;28;20034;-71
2022/05/01 05:23:23;;;;;;;2.03;1.27;;;14.50;59.70;;;;;;20518049;28;20042;-71
2022/05/01 05:33:24;;;;;;;2.85;1.40;;;14.50;59.70;;;;;;20515675;28;20043;-72
2022/05/01 05:43:25;;;;;;;3.17;1.55;;;14.40;59.70;;;;;;20548682;28;20038;-71
2022/05/01 05:53:26;;;;;;;3.67;2.00;;;14.40;59.80;;;;;;20545972;28;20085;-71
2022/05/01 06:03:26;;;;;;;4.10;1.30;;;14.50;59.90;;;;;;20562324;28;20034;-71
2022/05/01 06:13:27;;;;;;;2.90;1.67;;;14.40;59.90;;;;;;20546415;28;20073;-74
2022/05/01 06:23:27;;;;;;;3.05;1.70;;;14.50;60.00;;;;;;20545311;28;20038;-71
2022/05/01 06:33:29;;;;;;;2.85;1.42;;;14.40;60.00;;;;;;20573774;28;20042;-73
2022/05/01 06:43:30;;;;;;;5.85;1.52;;;14.40;60.00;;;;;;20612011;28;20415;-74
2022/05/01 06:53:30;;;;;;;2.75;1.33;;;14.40;60.10;;;;;;20631978;28;20038;-74
2022/05/01 07:03:31;;;;;;;3.88;1.83;;;14.40;60.10;;;;;;20623178;28;20042;-77
2022/05/01 07:13:31;;;;;;;2.15;1.33;;;14.40;60.20;;;;;;20621812;28;20080;-74
2022/05/01 07:23:32;;;;;;;2.90;1.60;;;14.40;60.20;;;;;;20620773;28;20459;-72
2022/05/01 07:33:33;;;;;;;4.07;1.50;;;14.40;60.30;;;;;;20613022;28;20031;-76
2022/05/01 07:43:33;;;;;;;3.22;1.38;;;14.40;60.30;;;;;;20523460;28;20034;-81
2022/05/01 07:53:34;;;;;;;3.78;1.52;;;14.40;60.30;;;;;;20540115;28;20042;-73
2022/05/01 08:13:53;;;;;;;3.65;1.60;;;14.40;60.40;;;;;;20551586;28;20105;-79
2022/05/01 08:23:54;;;;;;;3.38;1.70;;;14.40;60.40;;;;;;20520503;28;20039;-77
2022/05/01 08:33:55;;;;;;;3.40;1.50;;;14.40;60.50;;;;;;20551169;28;20030;-76
2022/05/01 08:44:00;;;;;;;2.22;1.42;;;14.40;60.50;;;;;;20529590;28;20121;-76
2022/05/01 08:54:08;;;;;;;2.55;1.65;;;14.40;60.50;;;;;;20546449;28;20045;-76
2022/05/01 09:04:12;;;;;;;2.78;1.75;;;14.40;60.50;;;;;;20497477;28;20100;-76
2022/05/01 09:14:12;;;;;;;6.72;1.85;;;14.40;60.50;;;;;;20523046;28;20034;-75
2022/05/01 09:24:13;;;;;;;3.00;1.90;;;14.40;60.50;;;;;;20535227;28;20042;-75
2022/05/01 09:34:21;;;;;;;3.42;1.70;;;14.40;60.50;;;;;;20545920;28;20043;-75
2022/05/01 09:44:22;;;;;;;2.83;1.85;;;14.40;60.40;;;;;;20530734;28;20130;-75
2022/05/01 09:54:24;;;;;;;3.90;1.63;;;14.50;60.40;;;;;;20580592;28;20386;-76
2022/05/01 10:04:24;;;;;;;6.20;1.70;;;14.50;60.40;;;;;;20564298;28;20051;-74
2022/05/01 10:14:26;;;;;;;3.20;1.25;;;14.50;60.30;;;;;;20531411;28;20134;-78
2022/05/01 10:24:28;;;;;;;2.58;1.48;;;14.50;60.30;;;;;;20566932;28;20046;-73
2022/05/01 10:34:38;;;;;;;3.08;1.20;;;14.60;60.30;;;;;;20545971;28;20497;-74
2022/05/01 10:44:41;;;;;;;4.78;1.30;;;14.50;60.20;;;;;;20594083;28;20055;-76
2022/05/01 10:54:45;;;;;;;2.78;1.58;;;14.50;60.20;;;;;;20532310;28;20058;-77
2022/05/01 11:04:46;;;;;;;3.13;1.75;;;14.50;60.10;;;;;;20561088;28;20042;-72
2022/05/01 11:14:50;;;;;;;3.15;1.35;;;14.60;60.10;;;;;;20540003;28;20509;-74
2022/05/01 11:24:51;;;;;;;4.03;1.25;;;14.60;60.00;;;;;;20553569;28;20409;-73
2022/05/01 11:34:54;;;;;;;2.80;1.25;;;14.60;60.00;;;;;;20522488;28;20043;-74
2022/05/01 11:44:56;;;;;;;1.77;1.08;;;14.60;60.00;;;;;;20534167;28;20039;-74
2022/05/01 11:55:06;;;;;;;1.92;1.02;;;14.70;60.10;;;;;;20520362;28;20038;-73
2022/05/01 12:05:10;;;;;;;5.97;1.13;;;14.70;60.00;;;;;;20555856;28;20054;-74
2022/05/01 12:15:13;;;;;;;2.63;1.42;;;14.70;60.00;;;;;;20568324;28;20460;-74
2022/05/01 12:25:17;;;;;;;2.90;1.13;;;14.70;59.80;;;;;;20553500;28;20039;-75
2022/05/01 12:35:17;;;;;;;1.98;1.10;;;14.80;59.70;;;;;;20551891;28;20038;-74
2022/05/01 12:45:21;;;;;;;0.57;0.55;;;14.90;59.80;;;;;;20535741;28;20058;-74
2022/05/01 12:55:27;;;;;;;1.70;1.15;;;14.90;59.80;;;;;;20548304;28;20042;-74
2022/05/01 13:05:27;;;;;;;1.77;1.00;;;14.90;59.70;;;;;;20546759;28;20046;-74
2022/05/01 13:15:37;;;;;;;4.68;1.30;;;14.90;59.60;;;;;;20976936;28;20906;-72
2022/05/01 13:25:38;;;;;;;6.65;1.05;;;14.90;59.50;;;;;;20960395;28;20029;-73
2022/05/01 13:35:39;;;;;;;2.08;0.90;;;15.00;59.50;;;;;;20973033;28;20475;-73
2022/05/01 13:45:40;;;;;;;3.72;0.82;;;15.00;59.50;;;;;;20939911;28;20029;-73
2022/05/01 13:55:40;;;;;;;2.28;0.98;;;15.00;59.50;;;;;;20940563;28;20102;-73
2022/05/01 14:05:41;;;;;;;2.35;0.80;;;15.00;59.50;;;;;;20971440;28;20538;-73
2022/05/01 14:15:42;;;;;;;2.08;1.13;;;15.10;59.40;;;;;;20965053;28;20033;-74
2022/05/01 14:25:44;;;;;;;0.77;0.63;;;15.10;59.40;;;;;;20922288;28;20383;-71
2022/05/01 14:35:47;;;;;;;1.45;0.95;;;15.10;59.40;;;;;;20873605;28;20652;-71
2022/05/01 14:45:56;;;;;;;1.98;1.15;;;15.10;59.50;;;;;;20917811;28;20082;-72
2022/05/01 14:55:56;;;;;;;2.92;0.95;;;15.10;59.60;;;;;;20921291;28;20052;-73
2022/05/01 15:16:29;;;;;;;1.73;0.90;;;15.00;59.60;;;;;;20891204;28;20055;-72
2022/05/01 15:26:30;;;;;;;2.15;1.20;;;15.00;59.70;;;;;;20887866;28;20036;-72
2022/05/01 15:36:42;;;;;;;2.25;0.65;;;15.00;60.40;;;;;;20904545;28;20418;-84
2022/05/01 15:46:56;;;;;;;1.92;0.93;;;15.00;59.80;;;;;;20869625;28;20036;-76
2022/05/01 15:57:04;;;;;;;1.75;1.15;;;15.00;60.00;;;;;;20850615;28;20037;-81
2022/05/01 16:07:26;;;;;;;1.50;0.60;;;15.00;60.10;;;;;;20891562;28;20364;-76
2022/05/01 16:17:51;;;;;;;1.17;0.60;;;15.00;60.20;;;;;;20874266;28;20053;-78
2022/05/01 16:27:58;;;;;;;1.05;0.80;;;15.00;60.30;;;;;;20962430;28;20049;-76
2022/05/01 16:38:00;;;;;;;0.77;0.60;;;15.00;60.40;;;;;;20970982;28;20040;-77
2022/05/01 16:48:02;;;;;;;1.23;0.93;;;15.00;60.40;;;;;;20949327;28;20310;-76
2022/05/01 16:58:03;;;;;;;1.45;1.00;;;15.00;60.40;;;;;;20933371;28;20504;-76
2022/05/01 17:08:27;;;;;;;1.40;0.80;;;15.00;60.40;;;;;;20969520;28;20120;-77
2022/05/01 17:18:56;;;;;;;2.88;0.70;;;15.10;60.60;;;;;;20937850;28;20103;-77
2022/05/01 17:28:59;;;;;;;1.15;0.60;;;15.10;60.60;;;;;;20941338;28;20048;-73
2022/05/01 17:38:59;;;;;;;2.53;0.80;;;15.10;60.50;;;;;;20915482;28;20033;-74
2022/05/01 17:49:00;;;;;;;3.25;1.08;;;15.00;60.40;;;;;;20882902;28;20039;-74
2022/05/01 17:59:00;;;;;;;2.47;0.68;;;15.00;60.40;;;;;;20893857;28;20040;-74
2022/05/01 18:20:08;;;;;;;0.90;0.60;;;15.00;60.50;;;;;;20982658;28;20049;-74
2022/05/01 18:30:21;;;;;;;1.73;0.85;;;15.00;60.50;;;;;;20997088;28;20402;-74
2022/05/01 18:40:24;;;;;;;1.48;0.60;;;14.90;60.50;;;;;;20981750;28;20517;-74
2022/05/01 18:50:24;;;;;;;1.30;0.80;;;14.90;60.60;;;;;;20980017;28;20078;-74
2022/05/01 19:00:25;;;;;;;1.02;0.70;;;14.90;60.60;;;;;;20978953;28;20113;-74
2022/05/01 19:10:53;;;;;;;1.33;0.80;;;14.90;60.60;;;;;;20977927;28;20039;-75
2022/05/01 19:21:03;;;;;;;;;;;14.90;60.60;;;;;;20925317;28;20041;-74
2022/05/01 19:31:37;;;;;;;3.97;1.40;;;14.90;60.60;;;;;;20909201;28;20498;-74
2022/05/01 19:41:49;;;;;;;1.55;0.70;;;14.90;60.70;;;;;;20890878;28;20041;-74
2022/05/01 20:02:22;;;;;;;2.00;0.75;;;14.80;60.60;;;;;;20893735;28;20498;-74
2022/05/01 20:12:22;;;;;;;0.80;0.80;;;14.80;60.60;;;;;;20889046;28;20033;-74
2022/05/01 20:22:35;;;;;;;2.38;1.02;;;14.80;60.70;;;;;;20905228;28;20279;-74
2022/05/01 20:33:15;;;;;;;3.10;0.90;;;14.80;61.30;;;;;;20883095;28;20041;-74
2022/05/01 20:43:45;;;;;;;2.03;0.90;;;14.80;60.60;;;;;;20814868;28;20057;-74
2022/05/01 20:53:47;;;;;;;1.70;0.70;;;14.80;60.60;;;;;;20867325;28;20483;-75
2022/05/01 21:03:53;;;;;;;4.45;0.60;;;14.80;60.60;;;;;;20802171;28;20490;-74
2022/05/01 21:13:54;;;;;;;1.15;0.80;;;14.70;60.60;;;;;;20886101;28;20041;-74
2022/05/01 21:23:54;;;;;;;0.80;0.55;;;14.80;60.60;;;;;;20905254;28;20479;-74
2022/05/01 21:33:55;;;;;;;0.70;0.60;;;14.70;60.50;;;;;;20897924;28;20366;-74
2022/05/01 21:43:55;;;;;;;1.07;0.53;;;14.70;60.60;;;;;;20921276;28;20116;-74
2022/05/01 21:53:56;;;;;;;1.30;0.77;;;14.70;60.60;;;;;;20918464;28;20294;-74
2022/05/01 22:03:56;;;;;;;1.48;0.65;;;14.70;60.60;;;;;;20901090;28;20123;-75
2022/05/01 22:13:57;;;;;;;3.85;1.13;;;14.70;60.60;;;;;;20900244;28;20047;-75
2022/05/01 22:23:58;;;;;;;2.40;0.90;;;14.70;60.60;;;;;;20900032;28;20044;-74
2022/05/01 22:33:59;;;;;;;1.80;0.90;;;14.70;60.60;;;;;;20915632;28;20033;-74
2022/05/01 22:43:59;;;;;;;1.15;0.82;;;14.70;60.60;;;;;;20914194;28;20111;-73
2022/05/01 22:54:00;;;;;;;1.20;0.70;;;14.70;60.60;;;;;;20897320;28;20575;-74
2022/05/01 23:04:01;;;;;;;2.67;1.00;;;14.70;60.50;;;;;;20892557;28;20033;-74
2022/05/01 23:14:04;;;;;;;0.93;0.80;;;14.60;60.50;;;;;;20912409;28;20139;-74
2022/05/01 23:24:05;;;;;;;1.08;0.70;;;14.70;60.50;;;;;;20895291;28;20082;-74
2022/05/01 23:34:06;;;;;;;1.33;0.73;;;14.60;60.50;;;;;;20894071;28;20114;-74
2022/05/01 23:44:06;;;;;;;1.33;0.70;;;14.60;60.40;;;;;;20910541;28;20116;-74
2022/05/01 23:54:07;;;;;;;1.73;0.88;;;14.60;60.40;;;;;;20910033;28;20060;-75
